< < Back
Terminal Aerodrome Forecast


Current Version              Previous Versions:   1  2  3  4  5  6  7  8  9  

Terminal Aerodrome Forecast

604
FTUS44 KMOB 271733
TAFMOB
TAF
KMOB 271733Z 2718/2818 15011KT P6SM FEW030 SCT200 BKN250
     FM280600 11004KT P6SM SCT250
     FM281500 13009KT P6SM BKN250=

Latest METAR

415
SAUS80 KWBC 281100 CCA
MTRMOB
METAR KMOB 281056Z 00000KT 10SM FEW090 SCT250 21/19 A3002 RMK AO2 SLP162
T02060189


USA.gov is the U.S. government's official web portal to all federal, state and local government web resources and services.